createdAt,value
2018-12-16T00:02:13.479Z,42.40
2018-12-16T00:04:49.498Z,41.80
2018-12-16T00:07:12.059Z,42.10
2018-12-16T00:09:40.317Z,41.90
2018-12-16T00:12:08.511Z,42.10
2018-12-16T00:14:36.718Z,42.80
2018-12-16T00:17:04.973Z,41.80
2018-12-16T00:19:33.373Z,41.40
2018-12-16T00:22:01.460Z,41.90
2018-12-16T00:24:29.739Z,42.10
2018-12-16T00:27:10.032Z,42.10
2018-12-16T00:29:38.494Z,42.10
2018-12-16T00:32:06.645Z,41.90
2018-12-16T00:34:35.003Z,42.10
2018-12-16T00:37:03.208Z,42.10
2018-12-16T00:39:31.459Z,42.30
2018-12-16T00:41:59.601Z,42.60
2018-12-16T00:44:27.741Z,42.20
2018-12-16T00:46:55.956Z,42.40
2018-12-16T00:49:24.132Z,41.20
2018-12-16T00:51:52.265Z,41.50
2018-12-16T00:54:20.493Z,41.50
2018-12-16T00:56:48.686Z,41.60
2018-12-16T00:59:16.730Z,41.30
2018-12-16T01:01:44.858Z,41.50
2018-12-16T01:04:12.979Z,40.40
2018-12-16T01:06:41.171Z,40.40
2018-12-16T01:09:09.279Z,40.30
2018-12-16T01:11:37.463Z,39.70
2018-12-16T01:14:05.995Z,40.40
2018-12-16T01:16:34.273Z,39.90
2018-12-16T01:19:02.570Z,40.40
2018-12-16T01:21:30.720Z,40.10
2018-12-16T01:23:58.957Z,40.40
2018-12-16T01:26:27.078Z,40.80
2018-12-16T01:28:55.181Z,41.30
2018-12-16T01:31:23.353Z,41.00
2018-12-16T01:33:51.541Z,41.20
2018-12-16T01:36:19.691Z,41.50
2018-12-16T01:38:47.799Z,41.50
2018-12-16T01:41:15.854Z,41.30
2018-12-16T01:43:43.934Z,41.00
2018-12-16T01:46:11.974Z,39.70
2018-12-16T01:48:40.135Z,40.00
2018-12-16T01:51:08.122Z,39.70
2018-12-16T01:53:36.401Z,38.30
2018-12-16T01:56:04.575Z,40.00
2018-12-16T01:58:32.581Z,40.70
2018-12-16T02:01:00.824Z,39.90
2018-12-16T02:03:28.928Z,40.10
2018-12-16T02:05:57.086Z,40.30
2018-12-16T02:08:26.220Z,40.30
2018-12-16T02:10:54.443Z,40.40
2018-12-16T02:13:22.677Z,40.10
2018-12-16T02:15:50.714Z,40.50
2018-12-16T02:18:18.827Z,40.10
2018-12-16T02:20:46.974Z,39.80
2018-12-16T02:23:15.033Z,40.00
2018-12-16T02:25:43.276Z,39.60
2018-12-16T02:28:11.349Z,39.70
2018-12-16T02:30:39.431Z,39.70
2018-12-16T02:33:07.693Z,39.10
2018-12-16T02:35:35.747Z,38.70
2018-12-16T02:38:04.073Z,39.10
2018-12-16T02:40:32.303Z,39.30
2018-12-16T02:43:00.397Z,38.50
2018-12-16T02:45:28.524Z,38.20
2018-12-16T02:47:56.625Z,37.90
2018-12-16T02:50:24.728Z,37.50
2018-12-16T02:52:52.807Z,38.00
2018-12-16T02:55:20.964Z,37.90
2018-12-16T02:57:49.027Z,38.30
2018-12-16T03:00:17.153Z,37.80
2018-12-16T03:02:45.438Z,38.90
2018-12-16T03:05:13.559Z,38.00
2018-12-16T03:07:41.652Z,38.50
2018-12-16T03:10:09.847Z,37.20
2018-12-16T03:12:38.085Z,38.10
2018-12-16T03:15:06.526Z,39.30
2018-12-16T03:17:34.629Z,39.10
2018-12-16T03:20:03.003Z,39.40
2018-12-16T03:22:31.094Z,39.70
2018-12-16T03:24:59.187Z,40.20
2018-12-16T03:27:27.264Z,39.60
2018-12-16T03:29:55.303Z,40.00
2018-12-16T03:32:23.432Z,39.80
2018-12-16T03:34:51.625Z,39.40
2018-12-16T03:37:19.726Z,39.80
2018-12-16T03:39:47.799Z,39.90
2018-12-16T03:42:15.946Z,39.90
2018-12-16T03:44:50.649Z,40.00
2018-12-16T03:47:18.726Z,40.20
2018-12-16T03:49:46.983Z,39.40
2018-12-16T03:52:17.941Z,39.80
2018-12-16T03:54:46.014Z,39.30
2018-12-16T03:57:14.179Z,39.50
2018-12-16T03:59:49.842Z,39.70
2018-12-16T04:02:17.908Z,39.70
2018-12-16T04:04:46.067Z,39.70
2018-12-16T04:07:14.150Z,39.20
2018-12-16T04:09:42.213Z,39.70
2018-12-16T04:12:10.190Z,39.30
2018-12-16T04:14:38.213Z,39.60
2018-12-16T04:17:06.282Z,39.10
2018-12-16T04:19:34.300Z,39.90
2018-12-16T04:22:02.307Z,39.50
2018-12-16T04:24:30.340Z,40.40
2018-12-16T04:26:58.314Z,40.00
2018-12-16T04:29:26.342Z,40.00
2018-12-16T04:31:54.320Z,40.50
2018-12-16T04:34:22.326Z,39.40
2018-12-16T04:36:50.408Z,39.40
2018-12-16T04:39:18.514Z,39.70
2018-12-16T04:41:46.511Z,40.00
2018-12-16T04:44:14.504Z,39.40
2018-12-16T04:46:42.562Z,39.70
2018-12-16T04:49:10.600Z,40.20
2018-12-16T04:51:38.958Z,40.00
2018-12-16T04:54:07.111Z,39.90
2018-12-16T04:56:35.257Z,39.40
2018-12-16T04:59:03.465Z,38.90
2018-12-16T05:01:31.470Z,39.20
2018-12-16T05:03:59.583Z,39.30
2018-12-16T05:06:27.603Z,39.60
2018-12-16T05:08:55.690Z,39.20
2018-12-16T05:11:23.724Z,39.70
2018-12-16T05:13:51.634Z,40.00
2018-12-16T05:16:19.775Z,41.00
2018-12-16T05:18:47.863Z,42.70
2018-12-16T05:21:15.851Z,43.90
2018-12-16T05:23:43.890Z,43.80
2018-12-16T05:26:11.877Z,43.90
2018-12-16T05:28:39.874Z,43.50
2018-12-16T05:31:14.614Z,43.90
2018-12-16T05:33:42.588Z,44.70
2018-12-16T05:36:10.607Z,46.60
2018-12-16T05:38:38.692Z,48.10
2018-12-16T05:41:06.698Z,50.00
2018-12-16T05:43:34.638Z,50.80
2018-12-16T05:46:02.634Z,52.30
2018-12-16T05:48:30.607Z,54.40
2018-12-16T05:50:58.648Z,55.90
2018-12-16T05:53:26.711Z,56.30
2018-12-16T05:55:54.778Z,58.30
2018-12-16T05:58:22.794Z,59.70
2018-12-16T06:00:50.818Z,60.00
2018-12-16T06:03:18.871Z,60.20
2018-12-16T06:05:53.605Z,60.90
2018-12-16T06:08:21.572Z,60.60
2018-12-16T06:10:49.698Z,60.40
2018-12-16T06:13:17.729Z,60.40
2018-12-16T06:15:45.801Z,60.40
2018-12-16T06:18:13.868Z,60.20
2018-12-16T06:20:41.958Z,59.20
2018-12-16T06:23:09.945Z,60.80
2018-12-16T06:25:38.066Z,60.40
2018-12-16T06:28:06.185Z,60.00
2018-12-16T06:33:23.550Z,59.10
2018-12-16T06:35:51.617Z,59.60
2018-12-16T06:38:19.634Z,59.50
2018-12-16T06:40:47.825Z,59.20
2018-12-16T06:43:15.836Z,58.40
2018-12-16T06:45:43.974Z,59.20
2018-12-16T06:48:12.022Z,59.70
2018-12-16T06:50:40.049Z,59.70
2018-12-16T06:53:08.067Z,59.80
2018-12-16T06:55:36.093Z,61.30
2018-12-16T06:58:04.202Z,61.60
2018-12-16T07:00:32.559Z,62.00
2018-12-16T07:03:00.621Z,62.40
2018-12-16T07:05:28.653Z,65.20
2018-12-16T07:07:56.656Z,67.60
2018-12-16T07:10:24.837Z,69.70
2018-12-16T07:12:53.133Z,71.90
2018-12-16T07:15:21.311Z,72.90
2018-12-16T07:17:49.298Z,72.30
2018-12-16T07:20:17.342Z,73.00
2018-12-16T07:22:46.250Z,73.40
2018-12-16T07:25:15.414Z,74.00
2018-12-16T07:27:43.422Z,74.10
2018-12-16T07:30:11.770Z,74.60
2018-12-16T07:32:39.887Z,74.50
2018-12-16T07:35:08.534Z,74.50
2018-12-16T07:37:36.531Z,75.10
2018-12-16T07:40:05.353Z,75.20
2018-12-16T07:42:33.740Z,75.20
2018-12-16T07:45:02.295Z,74.90
2018-12-16T07:47:30.919Z,75.60
2018-12-16T07:49:59.103Z,76.10
2018-12-16T07:52:27.136Z,76.50
2018-12-16T07:54:55.220Z,77.00
2018-12-16T07:57:23.353Z,76.70
2018-12-16T07:59:51.624Z,76.90
2018-12-16T08:02:19.820Z,77.20
2018-12-16T08:04:47.917Z,77.20
2018-12-16T08:07:17.025Z,76.90
2018-12-16T08:09:45.562Z,76.40
2018-12-16T08:12:13.612Z,75.40
2018-12-16T08:14:41.761Z,75.50
2018-12-16T08:17:10.694Z,75.10
2018-12-16T08:19:38.815Z,74.90
2018-12-16T08:22:06.987Z,75.10
2018-12-16T08:24:35.142Z,74.90
2018-12-16T08:27:03.534Z,73.90
2018-12-16T08:29:31.603Z,74.40
2018-12-16T08:31:59.853Z,74.00
2018-12-16T08:34:27.938Z,74.20
2018-12-16T08:36:56.039Z,74.20
2018-12-16T08:39:24.130Z,74.90
2018-12-16T08:41:52.220Z,74.50
2018-12-16T08:44:20.267Z,74.10
2018-12-16T08:46:48.458Z,74.30
2018-12-16T08:49:16.559Z,75.10
2018-12-16T08:51:44.851Z,74.40
2018-12-16T08:54:13.079Z,74.40
2018-12-16T08:56:41.147Z,74.40
2018-12-16T08:59:09.182Z,73.50
2018-12-16T09:01:37.339Z,74.00
2018-12-16T09:04:05.604Z,72.00
2018-12-16T09:06:33.868Z,72.20
2018-12-16T09:09:02.099Z,72.70
2018-12-16T09:11:30.357Z,72.30
2018-12-16T09:13:58.542Z,71.40
2018-12-16T09:16:26.668Z,73.30
2018-12-16T09:18:54.760Z,73.50
2018-12-16T09:21:22.981Z,72.90
2018-12-16T09:23:51.232Z,78.30
2018-12-16T09:26:19.619Z,72.80
2018-12-16T09:28:47.751Z,71.90
2018-12-16T09:31:15.877Z,71.80
2018-12-16T09:33:44.208Z,72.40
2018-12-16T09:36:13.092Z,71.80
2018-12-16T09:38:41.397Z,71.80
2018-12-16T09:41:09.913Z,72.60
2018-12-16T09:43:37.985Z,73.50
2018-12-16T09:46:06.147Z,73.90
2018-12-16T09:48:34.294Z,73.70
2018-12-16T09:51:02.493Z,73.20
2018-12-16T09:53:30.705Z,73.60
2018-12-16T09:55:59.020Z,73.10
2018-12-16T09:58:27.298Z,72.50
2018-12-16T10:00:55.602Z,72.90
2018-12-16T10:03:23.953Z,72.10
2018-12-16T10:05:52.173Z,71.60
2018-12-16T10:08:20.599Z,72.00
2018-12-16T10:10:48.885Z,71.20
2018-12-16T10:13:16.999Z,72.20
2018-12-16T10:15:45.356Z,71.30
2018-12-16T10:18:13.703Z,71.80
2018-12-16T10:20:42.287Z,71.90
2018-12-16T10:23:10.469Z,72.20
2018-12-16T10:25:39.614Z,71.40
2018-12-16T10:28:07.819Z,70.20
2018-12-16T10:30:36.065Z,70.10
2018-12-16T10:33:04.328Z,69.90
2018-12-16T10:35:32.537Z,69.20
2018-12-16T10:38:00.714Z,68.80
2018-12-16T10:40:28.969Z,69.50
2018-12-16T10:42:57.114Z,68.80
2018-12-16T10:45:25.363Z,69.10
2018-12-16T10:47:53.587Z,70.10
2018-12-16T10:50:21.979Z,71.10
2018-12-16T10:52:50.186Z,71.00
2018-12-16T10:55:18.467Z,71.20
2018-12-16T10:57:46.642Z,71.70
2018-12-16T11:00:20.545Z,71.10
2018-12-16T11:02:48.811Z,70.80
2018-12-16T11:05:17.162Z,70.80
2018-12-16T11:07:45.598Z,70.80
2018-12-16T11:10:13.943Z,70.30
2018-12-16T11:12:42.753Z,70.80
2018-12-16T11:15:11.006Z,70.80
2018-12-16T11:17:39.223Z,71.10
2018-12-16T11:20:08.267Z,70.80
2018-12-16T11:22:36.593Z,70.50
2018-12-16T11:25:08.300Z,70.90
2018-12-16T11:27:36.580Z,71.30
2018-12-16T11:30:05.638Z,71.00
2018-12-16T11:32:34.054Z,70.60
2018-12-16T11:35:02.399Z,71.00
2018-12-16T11:37:30.704Z,70.90
2018-12-16T11:39:58.933Z,72.10
2018-12-16T11:42:27.137Z,71.00
2018-12-16T11:44:55.382Z,70.20
2018-12-16T11:47:23.728Z,71.00
2018-12-16T11:49:51.993Z,69.90
2018-12-16T11:52:20.307Z,71.10
2018-12-16T11:54:48.653Z,71.40
2018-12-16T11:57:16.828Z,71.90
2018-12-16T11:59:45.066Z,72.40
2018-12-16T12:02:13.410Z,72.90
2018-12-16T12:04:41.635Z,73.20
2018-12-16T12:07:09.876Z,74.10
2018-12-16T12:09:38.149Z,74.50
2018-12-16T12:12:06.454Z,74.00
2018-12-16T12:14:34.931Z,74.10
2018-12-16T12:17:03.302Z,73.20
2018-12-16T12:19:39.957Z,75.00
2018-12-16T12:22:08.708Z,75.70
2018-12-16T12:24:43.931Z,74.50
2018-12-16T12:27:12.187Z,74.70
2018-12-16T12:29:40.388Z,74.90
2018-12-16T12:32:10.263Z,76.50
2018-12-16T12:34:38.418Z,75.60
2018-12-16T12:37:06.688Z,75.30
2018-12-16T12:39:35.121Z,75.80
2018-12-16T12:42:03.544Z,75.20
2018-12-16T12:44:31.870Z,74.80
2018-12-16T12:47:00.100Z,74.30
2018-12-16T12:49:28.486Z,73.90
2018-12-16T12:51:56.640Z,74.00
2018-12-16T12:54:24.776Z,73.10
2018-12-16T12:56:53.079Z,73.20
2018-12-16T12:59:21.206Z,72.10
2018-12-16T13:01:49.496Z,73.10
2018-12-16T13:04:17.795Z,74.00
2018-12-16T13:06:46.069Z,74.60
2018-12-16T13:09:14.336Z,74.70
2018-12-16T13:11:42.680Z,75.20
2018-12-16T13:14:11.140Z,74.80
2018-12-16T13:16:39.383Z,75.80
2018-12-16T13:19:07.657Z,76.30
2018-12-16T13:21:35.868Z,75.20
2018-12-16T13:24:04.105Z,75.20
2018-12-16T13:26:33.063Z,75.30
2018-12-16T13:29:01.393Z,74.40
2018-12-16T13:31:29.588Z,75.60
2018-12-16T13:33:57.920Z,75.60
2018-12-16T13:36:26.183Z,76.30
2018-12-16T13:38:54.479Z,76.80
2018-12-16T13:41:23.123Z,77.40
2018-12-16T14:00:07.804Z,77.60
2018-12-16T14:02:36.272Z,79.30
2018-12-16T14:05:05.939Z,79.80
2018-12-16T14:07:34.185Z,79.40
2018-12-16T14:10:02.460Z,79.20
2018-12-16T14:12:30.799Z,79.60
2018-12-16T14:14:59.154Z,80.20
2018-12-16T14:17:27.452Z,80.20
2018-12-16T14:19:55.870Z,80.70
2018-12-16T14:22:24.181Z,80.70
2018-12-16T14:24:52.459Z,80.70
2018-12-16T14:27:20.838Z,80.90
2018-12-16T14:29:49.138Z,81.40
2018-12-16T14:32:17.522Z,81.30
2018-12-16T14:34:45.808Z,82.20
2018-12-16T14:37:14.170Z,82.30
2018-12-16T14:39:42.470Z,81.80
2018-12-16T14:42:10.839Z,82.20
2018-12-16T14:44:39.367Z,82.30
2018-12-16T14:47:07.624Z,82.60
2018-12-16T14:49:36.438Z,82.70
2018-12-16T14:52:04.810Z,82.60
2018-12-16T14:54:33.025Z,83.30
2018-12-16T14:57:01.409Z,84.00
2018-12-16T14:59:29.627Z,84.30
2018-12-16T15:01:57.882Z,84.50
2018-12-16T15:04:26.204Z,84.70
2018-12-16T15:06:54.640Z,84.60
2018-12-16T15:09:22.875Z,84.40
2018-12-16T15:11:51.136Z,84.60
2018-12-16T15:14:19.490Z,84.90
2018-12-16T15:16:47.781Z,85.10
2018-12-16T15:19:16.008Z,85.30
2018-12-16T15:21:44.157Z,85.20
2018-12-16T15:24:12.296Z,84.50
2018-12-16T15:26:40.729Z,85.30
2018-12-16T15:29:09.004Z,85.10
2018-12-16T15:31:37.216Z,84.80
2018-12-16T15:34:05.556Z,84.90
2018-12-16T15:36:33.821Z,85.50
2018-12-16T15:39:02.098Z,85.20
2018-12-16T15:41:30.427Z,84.70
2018-12-16T15:43:58.630Z,84.80
2018-12-16T15:46:26.838Z,85.20
2018-12-16T15:48:55.204Z,82.50
2018-12-16T15:51:23.687Z,80.80
2018-12-16T15:53:52.149Z,80.20
2018-12-16T15:56:21.717Z,77.80
2018-12-16T15:58:50.354Z,78.10
2018-12-16T16:01:22.133Z,77.40
2018-12-16T16:03:50.666Z,77.00
2018-12-16T16:06:18.929Z,76.50
2018-12-16T16:08:47.355Z,75.70
2018-12-16T16:11:15.689Z,75.90
2018-12-16T16:13:44.058Z,76.90
2018-12-16T16:16:12.311Z,77.40
2018-12-16T16:18:40.582Z,77.70
2018-12-16T16:21:08.792Z,76.10
2018-12-16T16:23:37.107Z,76.30
2018-12-16T16:26:05.248Z,74.60
2018-12-16T16:28:33.509Z,73.90
2018-12-16T16:31:01.688Z,72.20
2018-12-16T16:33:30.236Z,71.40
2018-12-16T16:35:58.600Z,70.10
2018-12-16T16:38:26.767Z,70.10
2018-12-16T16:40:55.251Z,69.40
2018-12-16T16:43:23.472Z,68.80
2018-12-16T16:45:51.935Z,69.00
2018-12-16T16:48:20.209Z,68.40
2018-12-16T16:50:48.491Z,66.60
2018-12-16T16:53:16.725Z,66.60
2018-12-16T16:55:44.961Z,66.70
2018-12-16T16:58:13.420Z,66.50
2018-12-16T17:00:41.660Z,65.70
2018-12-16T17:03:09.869Z,64.40
2018-12-16T17:05:38.169Z,64.40
2018-12-16T17:08:06.576Z,63.40
2018-12-16T17:10:34.834Z,63.60
2018-12-16T17:13:03.311Z,63.10
2018-12-16T17:15:31.570Z,63.80
2018-12-16T17:17:59.856Z,63.70
2018-12-16T17:20:28.169Z,63.30
2018-12-16T17:22:56.988Z,64.40
2018-12-16T17:25:25.286Z,64.40
2018-12-16T17:27:53.678Z,64.40
2018-12-16T17:30:21.946Z,64.50
2018-12-16T17:32:50.330Z,64.00
2018-12-16T17:35:18.674Z,63.70
2018-12-16T17:37:47.074Z,63.40
2018-12-16T17:40:15.394Z,63.00
2018-12-16T17:42:43.768Z,62.40
2018-12-16T17:45:11.975Z,62.60
2018-12-16T17:47:40.215Z,62.10
2018-12-16T17:50:09.232Z,62.30
2018-12-16T17:52:37.491Z,62.10
2018-12-16T17:55:06.207Z,62.20
2018-12-16T17:57:34.479Z,62.80
2018-12-16T18:00:03.145Z,63.40
2018-12-16T18:02:31.308Z,62.90
2018-12-16T18:04:59.679Z,62.80
2018-12-16T18:07:27.853Z,62.80
2018-12-16T18:09:56.207Z,63.20
2018-12-16T18:12:24.765Z,62.80
2018-12-16T18:14:53.009Z,62.90
2018-12-16T18:17:21.233Z,62.60
2018-12-16T18:19:49.565Z,61.40
2018-12-16T18:22:17.725Z,61.50
2018-12-16T18:24:45.933Z,61.30
2018-12-16T18:27:14.014Z,61.90
2018-12-16T18:29:42.597Z,61.40
2018-12-16T18:32:10.794Z,61.30
2018-12-16T18:34:38.982Z,60.70
2018-12-16T18:37:07.225Z,61.10
2018-12-16T18:39:35.463Z,61.30
2018-12-16T18:42:03.979Z,61.40
2018-12-16T18:44:32.347Z,62.20
2018-12-16T18:47:00.660Z,63.50
2018-12-16T18:49:28.902Z,63.40
2018-12-16T18:51:57.262Z,67.50
2018-12-16T18:54:25.547Z,70.10
2018-12-16T18:56:53.847Z,71.70
2018-12-16T18:59:22.061Z,72.90
2018-12-16T19:01:50.400Z,72.90
2018-12-16T19:07:11.794Z,72.90
2018-12-16T19:09:40.157Z,73.70
2018-12-16T19:12:08.483Z,73.50
2018-12-16T19:14:37.252Z,73.80
2018-12-16T19:17:12.173Z,73.70
2018-12-16T19:19:40.431Z,74.70
2018-12-16T19:22:08.656Z,74.70
2018-12-16T19:24:37.021Z,74.20
2018-12-16T19:27:05.251Z,74.30
2018-12-16T19:29:33.510Z,74.80
2018-12-16T19:32:01.740Z,74.10
2018-12-16T19:34:30.022Z,74.50
2018-12-16T19:36:58.268Z,74.50
2018-12-16T19:39:26.813Z,75.20
2018-12-16T19:41:55.213Z,75.20
2018-12-16T19:44:23.467Z,75.50
2018-12-16T19:46:51.745Z,75.60
2018-12-16T19:49:20.102Z,75.50
2018-12-16T19:51:48.407Z,75.80
2018-12-16T19:54:17.341Z,76.30
2018-12-16T19:56:45.727Z,76.50
2018-12-16T19:59:14.491Z,76.70
2018-12-16T20:01:42.894Z,76.40
2018-12-16T20:04:16.409Z,75.60
2018-12-16T20:06:47.320Z,75.80
2018-12-16T20:09:15.741Z,76.10
2018-12-16T20:11:44.077Z,77.60
2018-12-16T20:14:12.252Z,76.60
2018-12-16T20:16:40.607Z,77.10
2018-12-16T20:19:08.820Z,76.30
2018-12-16T20:21:37.136Z,76.80
2018-12-16T20:24:05.451Z,76.70
2018-12-16T20:26:33.643Z,76.70
2018-12-16T20:29:01.828Z,76.40
2018-12-16T20:31:30.076Z,75.80
2018-12-16T20:33:58.247Z,76.40
2018-12-16T20:36:26.536Z,76.50
2018-12-16T20:38:54.826Z,76.90
2018-12-16T20:41:23.058Z,76.90
2018-12-16T20:43:51.453Z,76.50
2018-12-16T20:46:19.567Z,77.30
2018-12-16T20:48:47.867Z,77.30
2018-12-16T20:51:16.628Z,77.00
2018-12-16T20:53:45.034Z,77.30
2018-12-16T20:56:13.569Z,78.00
2018-12-16T20:58:42.046Z,78.10
2018-12-16T21:01:11.163Z,77.50
2018-12-16T21:03:40.085Z,77.90
2018-12-16T21:06:08.372Z,77.80
2018-12-16T21:08:37.455Z,78.20
2018-12-16T21:11:11.624Z,78.00
2018-12-16T21:13:45.557Z,77.90
2018-12-16T21:16:19.628Z,77.80
2018-12-16T21:18:48.265Z,78.30
2018-12-16T21:21:16.765Z,78.30
2018-12-16T21:23:44.976Z,78.20
2018-12-16T21:26:13.251Z,77.70
2018-12-16T21:28:41.497Z,79.00
2018-12-16T21:31:09.736Z,79.50
2018-12-16T21:33:37.913Z,80.10
2018-12-16T21:36:06.225Z,80.40
2018-12-16T21:38:34.497Z,80.70
2018-12-16T21:41:02.638Z,80.80
2018-12-16T21:43:30.778Z,80.00
2018-12-16T21:45:58.884Z,79.20
2018-12-16T21:48:27.065Z,79.50
2018-12-16T21:50:55.213Z,78.40
2018-12-16T21:53:23.378Z,77.50
2018-12-16T21:55:51.640Z,76.40
2018-12-16T21:58:19.764Z,74.70
2018-12-16T22:00:48.025Z,73.30
2018-12-16T22:03:16.288Z,71.20
2018-12-16T22:05:45.177Z,69.80
2018-12-16T22:08:13.329Z,67.50
2018-12-16T22:10:41.606Z,67.30
2018-12-16T22:13:09.791Z,67.30
2018-12-16T22:15:37.964Z,68.00
2018-12-16T22:18:06.135Z,69.20
2018-12-16T22:20:34.448Z,68.60
2018-12-16T22:23:02.751Z,67.80
2018-12-16T22:25:30.940Z,67.80
2018-12-16T22:27:59.149Z,68.30
2018-12-16T22:30:27.352Z,67.10
2018-12-16T22:32:55.490Z,67.30
2018-12-16T22:35:23.738Z,66.40
2018-12-16T22:37:51.972Z,65.90
2018-12-16T22:40:20.602Z,65.30
2018-12-16T22:42:48.883Z,65.10
2018-12-16T22:45:17.147Z,65.20
2018-12-16T22:47:45.457Z,64.90
2018-12-16T22:50:13.846Z,65.80
2018-12-16T22:52:42.046Z,65.80
2018-12-16T22:55:10.215Z,65.40
2018-12-16T22:57:38.453Z,65.40
2018-12-16T23:00:13.198Z,65.30
2018-12-16T23:02:41.444Z,66.20
2018-12-16T23:05:09.758Z,69.20
2018-12-16T23:07:37.919Z,72.00
2018-12-16T23:10:06.343Z,72.80
2018-12-16T23:12:34.798Z,73.60
2018-12-16T23:15:03.296Z,74.30
2018-12-16T23:17:31.421Z,74.70
2018-12-16T23:20:05.198Z,75.30
2018-12-16T23:22:33.312Z,75.60
2018-12-16T23:27:54.132Z,75.50
2018-12-16T23:30:19.138Z,75.60
2018-12-16T23:32:47.257Z,76.70
2018-12-16T23:35:15.774Z,76.70
2018-12-16T23:37:44.286Z,76.80
2018-12-16T23:40:12.870Z,77.30
2018-12-16T23:42:40.898Z,77.20
2018-12-16T23:45:09.686Z,77.60
2018-12-16T23:47:38.326Z,78.30
2018-12-16T23:50:06.980Z,78.00
2018-12-16T23:52:35.055Z,77.70
2018-12-16T23:55:03.484Z,77.20
2018-12-16T23:57:31.795Z,77.10
